Fayette, Maine
Current Conditions -  °F | °C
As of 2:06 PM on Saturday 20 Dec 2014 (Local Time) from KAUG Reporting Station
Broken Clouds Broken Clouds  
Wind Chill: 13°   Ceiling: 1500
Heat Index: 23°   Visibility: 10mi
Dew Point: 17°   Wind: 9mph
Humidity: 78%   Direction: 60°ENE
Pressure: 30.3"   Gusts: NA
Location:  44.4361°N, 70.0741°W
Report Text: KAUG 201906Z AUTO 06008KT 10SM BKN015 M05/M08 A3030 RMK AO2 T10501083
Loading
Personal Weather Stations






























Interactive Weather Map New forecast layout! Learn more

10-Day Weather Forecast

Advertisements
Track Severe Weather on mobile